createdAt,value
2022-11-14T00:01:27.215Z,28.90
2022-11-14T00:03:55.249Z,28.17
2022-11-14T00:06:23.880Z,28.50
2022-11-14T00:08:51.915Z,29.20
2022-11-14T00:11:21.349Z,27.87
2022-11-14T00:13:49.395Z,27.73
2022-11-14T00:16:18.298Z,27.20
2022-11-14T00:18:46.329Z,28.30
2022-11-14T00:21:14.302Z,28.77
2022-11-14T00:23:42.367Z,27.17
2022-11-14T00:26:10.495Z,27.87
2022-11-14T00:28:39.970Z,28.00
2022-11-14T00:31:08.272Z,28.70
2022-11-14T00:33:36.282Z,27.80
2022-11-14T00:36:05.313Z,28.63
2022-11-14T00:38:33.297Z,28.30
2022-11-14T00:41:01.311Z,28.97
2022-11-14T00:43:29.315Z,26.23
2022-11-14T00:45:58.789Z,26.80
2022-11-14T00:48:27.034Z,27.57
2022-11-14T00:50:55.285Z,27.33
2022-11-14T00:53:23.322Z,27.07
2022-11-14T00:55:51.296Z,24.90
2022-11-14T00:58:19.360Z,26.73
2022-11-14T01:00:47.543Z,25.70
2022-11-14T01:03:17.145Z,26.13
2022-11-14T01:05:46.567Z,28.63
2022-11-14T01:08:15.659Z,27.67
2022-11-14T01:10:45.244Z,27.97
2022-11-14T01:13:14.211Z,27.33
2022-11-14T01:15:42.840Z,28.27
2022-11-14T01:18:12.206Z,26.33
2022-11-14T01:20:42.123Z,28.27
2022-11-14T01:23:11.408Z,26.43
2022-11-14T01:25:41.085Z,28.83
2022-11-14T01:28:10.275Z,25.73
2022-11-14T01:30:38.968Z,25.70
2022-11-14T01:33:07.515Z,25.73
2022-11-14T01:35:37.082Z,25.67
2022-11-14T01:38:07.604Z,27.00
2022-11-14T01:40:35.727Z,26.07
2022-11-14T01:43:27.036Z,24.83
2022-11-14T01:45:58.367Z,25.47
2022-11-14T01:48:32.740Z,24.43
2022-11-14T01:51:04.672Z,26.27
2022-11-14T01:53:34.167Z,24.50
2022-11-14T01:56:05.627Z,25.13
2022-11-14T01:58:38.305Z,23.80
2022-11-14T02:01:06.615Z,24.97
2022-11-14T02:03:38.578Z,25.20
2022-11-14T02:06:09.245Z,24.07
2022-11-14T02:08:39.428Z,24.00
2022-11-14T02:11:07.415Z,23.97
2022-11-14T02:13:35.488Z,24.27
2022-11-14T02:16:03.671Z,22.27
2022-11-14T02:18:31.941Z,22.80
2022-11-14T02:21:01.595Z,24.07
2022-11-14T02:23:31.765Z,23.80
2022-11-14T02:25:59.984Z,22.27
2022-11-14T02:28:28.990Z,22.27
2022-11-14T02:30:57.424Z,23.43
2022-11-14T02:33:25.424Z,22.67
2022-11-14T02:35:53.480Z,22.00
2022-11-14T02:38:22.869Z,22.17
2022-11-14T02:40:50.840Z,22.87
2022-11-14T02:43:18.863Z,21.20
2022-11-14T02:45:46.948Z,22.03
2022-11-14T02:48:15.235Z,23.27
2022-11-14T02:50:43.260Z,23.60
2022-11-14T02:53:11.368Z,21.90
2022-11-14T02:55:40.749Z,21.83
2022-11-14T02:58:08.807Z,20.93
2022-11-14T03:00:47.985Z,22.23
2022-11-14T03:03:24.909Z,20.83
2022-11-14T03:05:53.540Z,22.60
2022-11-14T03:08:21.737Z,21.80
2022-11-14T03:10:51.092Z,22.27
2022-11-14T03:13:19.203Z,23.10
2022-11-14T03:15:47.396Z,22.60
2022-11-14T03:18:15.556Z,22.53
2022-11-14T03:20:45.007Z,22.50
2022-11-14T03:23:13.189Z,22.57
2022-11-14T03:25:41.242Z,22.47
2022-11-14T03:28:10.671Z,21.40
2022-11-14T03:30:38.710Z,21.97
2022-11-14T03:33:06.781Z,22.13
2022-11-14T03:35:34.809Z,23.63
2022-11-14T03:38:02.774Z,22.70
2022-11-14T03:40:30.816Z,22.57
2022-11-14T03:42:58.845Z,24.00
2022-11-14T03:45:28.226Z,23.40
2022-11-14T03:47:56.262Z,24.00
2022-11-14T03:50:24.236Z,23.70
2022-11-14T03:52:52.497Z,24.87
2022-11-14T03:55:20.590Z,23.20
2022-11-14T03:57:48.711Z,23.00
2022-11-14T04:00:17.275Z,24.03
2022-11-14T04:02:47.674Z,23.33
2022-11-14T04:05:16.085Z,23.43
2022-11-14T04:07:44.296Z,23.23
2022-11-14T04:10:12.467Z,25.33
2022-11-14T04:12:40.637Z,24.70
2022-11-14T04:15:09.512Z,24.33
2022-11-14T04:17:39.966Z,24.33
2022-11-14T04:20:10.938Z,24.93
2022-11-14T04:22:39.250Z,23.70
2022-11-14T04:25:08.772Z,24.03
2022-11-14T04:27:37.354Z,23.90
2022-11-14T04:30:06.443Z,24.43
2022-11-14T04:32:34.647Z,25.50
2022-11-14T04:35:02.647Z,24.40
2022-11-14T04:37:32.115Z,25.57
2022-11-14T04:40:02.566Z,24.67
2022-11-14T04:42:30.584Z,24.53
2022-11-14T04:44:58.647Z,22.43
2022-11-14T04:47:26.647Z,24.67
2022-11-14T04:49:54.674Z,25.50
2022-11-14T04:52:22.624Z,26.53
2022-11-14T04:54:52.000Z,25.67
2022-11-14T04:57:20.102Z,25.97
2022-11-14T04:59:48.341Z,25.27
2022-11-14T05:02:16.319Z,25.27
2022-11-14T05:04:44.558Z,27.07
2022-11-14T05:07:12.915Z,26.63
2022-11-14T05:09:40.896Z,27.97
2022-11-14T05:12:10.324Z,28.00
2022-11-14T05:14:38.372Z,27.80
2022-11-14T05:17:06.489Z,26.40
2022-11-14T05:19:34.620Z,26.30
2022-11-14T05:22:02.760Z,28.47
2022-11-14T05:24:30.933Z,28.70
2022-11-14T05:27:00.267Z,27.90
2022-11-14T05:29:29.797Z,28.97
2022-11-14T05:31:58.961Z,27.53
2022-11-14T05:34:27.042Z,28.33
2022-11-14T05:36:55.118Z,28.70
2022-11-14T05:39:23.143Z,27.07
2022-11-14T05:41:51.159Z,29.80
2022-11-14T05:44:19.260Z,28.23
2022-11-14T05:46:48.653Z,29.27
2022-11-14T05:49:20.755Z,27.57
2022-11-14T05:51:50.108Z,29.37
2022-11-14T05:54:18.180Z,27.57
2022-11-14T05:56:46.232Z,29.20
2022-11-14T05:59:14.246Z,28.57
2022-11-14T06:01:42.712Z,28.20
2022-11-14T06:04:14.810Z,29.83
2022-11-14T06:06:42.935Z,31.63
2022-11-14T06:09:11.112Z,28.87
2022-11-14T06:11:39.366Z,28.67
2022-11-14T06:14:10.869Z,30.67
2022-11-14T06:16:39.504Z,28.90
2022-11-14T06:19:07.562Z,30.00
2022-11-14T06:21:36.996Z,30.57
2022-11-14T06:24:05.509Z,30.37
2022-11-14T06:26:33.642Z,29.70
2022-11-14T06:29:01.782Z,30.00
2022-11-14T06:31:30.103Z,28.90
2022-11-14T06:33:58.234Z,30.13
2022-11-14T06:36:26.393Z,30.80
2022-11-14T06:38:55.887Z,28.13
2022-11-14T06:41:24.500Z,25.70
2022-11-14T06:43:54.876Z,24.23
2022-11-14T06:46:24.270Z,22.73
2022-11-14T06:48:52.665Z,22.00
2022-11-14T06:51:20.922Z,21.67
2022-11-14T06:53:49.110Z,22.57
2022-11-14T06:56:20.278Z,22.50
2022-11-14T06:58:50.225Z,24.30
2022-11-14T07:01:19.622Z,22.00
2022-11-14T07:03:48.359Z,22.47
2022-11-14T07:06:18.967Z,19.57
2022-11-14T07:08:47.318Z,20.23
2022-11-14T07:11:23.118Z,17.83
2022-11-14T07:13:53.227Z,18.87
2022-11-14T07:16:24.748Z,18.93
2022-11-14T07:18:52.789Z,18.30
2022-11-14T07:21:20.860Z,19.20
2022-11-14T07:23:49.359Z,19.53
2022-11-14T07:26:17.459Z,17.93
2022-11-14T07:28:52.233Z,18.80
2022-11-14T07:31:22.716Z,18.27
2022-11-14T07:33:50.812Z,19.53
2022-11-14T07:36:20.217Z,19.70
2022-11-14T07:38:49.126Z,20.03
2022-11-14T07:41:18.758Z,19.00
2022-11-14T07:43:47.178Z,20.17
2022-11-14T07:46:17.238Z,19.13
2022-11-14T07:48:47.237Z,19.63
2022-11-14T07:51:17.542Z,19.77
2022-11-14T07:53:45.770Z,19.87
2022-11-14T07:56:14.197Z,18.37
2022-11-14T07:58:43.742Z,19.63
2022-11-14T08:01:14.175Z,19.37
2022-11-14T08:03:45.925Z,18.67
2022-11-14T08:06:17.338Z,20.30
2022-11-14T08:08:45.462Z,19.13
2022-11-14T08:11:15.137Z,19.60
2022-11-14T08:13:51.324Z,20.27
2022-11-14T08:16:19.355Z,19.80
2022-11-14T08:18:47.689Z,18.37
2022-11-14T08:21:17.261Z,18.63
2022-11-14T08:23:45.910Z,19.70
2022-11-14T08:26:13.931Z,19.37
2022-11-14T08:28:42.297Z,19.80
2022-11-14T08:31:10.942Z,19.70
2022-11-14T08:33:39.101Z,17.43
2022-11-14T08:36:08.865Z,18.27
2022-11-14T08:38:38.883Z,17.13
2022-11-14T08:41:07.297Z,15.90
2022-11-14T08:43:35.527Z,16.93
2022-11-14T08:46:06.221Z,16.77
2022-11-14T08:48:34.949Z,16.13
2022-11-14T08:51:08.176Z,15.33
2022-11-14T08:53:36.659Z,15.37
2022-11-14T08:56:07.043Z,15.00
2022-11-14T08:58:35.587Z,14.20
2022-11-14T09:01:04.991Z,15.33
2022-11-14T09:03:33.596Z,15.17
2022-11-14T09:06:02.551Z,15.43
2022-11-14T09:08:31.831Z,15.27
2022-11-14T09:11:05.169Z,15.43
2022-11-14T09:13:38.553Z,14.43
2022-11-14T09:16:07.379Z,15.07
2022-11-14T09:18:35.714Z,14.63
2022-11-14T09:21:05.488Z,15.63
2022-11-14T09:23:33.856Z,15.20
2022-11-14T09:26:05.555Z,14.93
2022-11-14T09:28:35.347Z,15.70
2022-11-14T09:31:04.290Z,15.80
2022-11-14T09:33:32.797Z,16.77
2022-11-14T09:36:01.893Z,15.00
2022-11-14T09:38:35.410Z,14.83
2022-11-14T09:41:24.287Z,14.63
2022-11-14T09:44:21.000Z,15.17
2022-11-14T09:46:54.144Z,15.73
2022-11-14T09:49:31.896Z,15.77
2022-11-14T09:52:06.266Z,16.10
2022-11-14T09:54:46.011Z,16.10
2022-11-14T09:57:19.393Z,15.57
2022-11-14T09:59:50.328Z,16.07
2022-11-14T10:02:32.734Z,16.07
2022-11-14T10:05:14.751Z,17.07
2022-11-14T10:07:54.920Z,16.37
2022-11-14T10:10:38.714Z,17.37
2022-11-14T10:13:18.823Z,17.67
2022-11-14T10:15:56.197Z,16.97
2022-11-14T10:18:40.959Z,18.80
2022-11-14T10:21:29.665Z,16.97
2022-11-14T10:24:05.556Z,21.20
2022-11-14T10:26:39.737Z,20.30
2022-11-14T10:29:34.541Z,20.43
2022-11-14T10:32:11.936Z,19.60
2022-11-14T10:34:46.997Z,18.47
2022-11-14T10:37:21.428Z,20.00
2022-11-14T10:39:53.003Z,18.73
2022-11-14T10:42:30.322Z,19.00
2022-11-14T10:45:04.272Z,22.87
2022-11-14T10:47:39.407Z,18.13
2022-11-14T10:50:19.320Z,18.77
2022-11-14T10:52:49.104Z,19.40
2022-11-14T10:55:18.860Z,19.23
2022-11-14T10:57:47.622Z,20.40
2022-11-14T11:00:18.125Z,20.77
2022-11-14T11:02:53.598Z,19.20
2022-11-14T11:05:24.499Z,19.20
2022-11-14T11:08:36.053Z,20.13
2022-11-14T11:11:17.917Z,19.83
2022-11-14T11:13:54.432Z,19.93
2022-11-14T11:16:24.931Z,20.47
2022-11-14T11:18:54.591Z,20.43
2022-11-14T11:21:24.550Z,19.87
2022-11-14T11:23:54.791Z,19.07
2022-11-14T11:26:25.768Z,21.73
2022-11-14T11:29:06.123Z,21.67
2022-11-14T11:31:54.625Z,20.10
2022-11-14T11:34:27.712Z,20.73
2022-11-14T11:37:00.586Z,20.77
2022-11-14T11:39:31.657Z,18.93
2022-11-14T11:42:11.134Z,21.33
2022-11-14T11:44:45.702Z,19.67
2022-11-14T11:47:17.349Z,20.13
2022-11-14T11:49:53.444Z,22.13
2022-11-14T11:52:32.870Z,20.33
2022-11-14T11:55:06.566Z,21.27
2022-11-14T11:57:40.593Z,21.17
2022-11-14T12:00:15.893Z,21.13
2022-11-14T12:02:50.008Z,20.97
2022-11-14T12:05:27.241Z,21.70
2022-11-14T12:08:04.538Z,20.03
2022-11-14T12:10:37.069Z,19.57
2022-11-14T12:13:50.329Z,19.77
2022-11-14T12:16:33.486Z,20.10
2022-11-14T12:19:27.262Z,18.57
2022-11-14T12:22:17.740Z,18.93
2022-11-14T12:25:23.364Z,18.63
2022-11-14T12:28:06.804Z,19.63
2022-11-14T12:30:36.908Z,20.50
2022-11-14T12:33:09.712Z,20.23
2022-11-14T12:35:39.663Z,19.57
2022-11-14T12:38:19.716Z,20.50
2022-11-14T12:40:53.752Z,18.53
2022-11-14T12:43:36.797Z,18.83
2022-11-14T12:46:09.819Z,19.50
2022-11-14T12:48:40.450Z,19.80
2022-11-14T12:51:46.432Z,22.00
2022-11-14T12:54:47.014Z,20.30
2022-11-14T12:57:39.738Z,19.47
2022-11-14T13:00:10.397Z,18.93
2022-11-14T13:03:00.716Z,20.03
2022-11-14T13:05:50.756Z,20.37
2022-11-14T13:08:40.246Z,20.50
2022-11-14T13:12:00.904Z,21.03
2022-11-14T13:14:47.908Z,20.73
2022-11-14T13:17:44.826Z,20.60
2022-11-14T13:20:46.412Z,20.97
2022-11-14T13:23:59.459Z,20.13
2022-11-14T13:26:51.553Z,21.47
2022-11-14T13:30:00.319Z,20.87
2022-11-14T13:33:07.837Z,21.00
2022-11-14T13:36:04.872Z,20.17
2022-11-14T13:39:13.193Z,20.87
2022-11-14T13:42:18.534Z,22.10
2022-11-14T13:45:09.890Z,20.77
2022-11-14T13:48:07.445Z,20.37
2022-11-14T13:50:38.241Z,21.40
2022-11-14T13:53:13.854Z,20.23
2022-11-14T13:55:57.985Z,20.73
2022-11-14T13:58:51.780Z,21.87
2022-11-14T14:01:43.974Z,18.97
2022-11-14T14:04:27.522Z,20.83
2022-11-14T14:07:08.709Z,20.87
2022-11-14T14:09:49.453Z,20.00
2022-11-14T14:12:31.959Z,20.40
2022-11-14T14:15:13.076Z,20.60
2022-11-14T14:17:52.364Z,19.87
2022-11-14T14:20:33.131Z,20.57
2022-11-14T14:23:10.373Z,20.97
2022-11-14T14:25:47.039Z,21.63
2022-11-14T14:28:24.067Z,19.83
2022-11-14T14:31:16.220Z,20.63
2022-11-14T14:33:46.139Z,21.57
2022-11-14T14:36:25.831Z,21.27
2022-11-14T14:39:16.997Z,23.23
2022-11-14T14:41:45.649Z,20.97
2022-11-14T14:44:23.125Z,22.13
2022-11-14T14:46:54.073Z,22.07
2022-11-14T14:49:26.768Z,22.87
2022-11-14T14:51:58.519Z,23.00
2022-11-14T14:54:29.491Z,26.37
2022-11-14T14:57:01.313Z,26.40
2022-11-14T14:59:31.824Z,26.77
2022-11-14T15:02:02.054Z,26.23
2022-11-14T15:04:31.266Z,25.00
2022-11-14T15:06:59.597Z,25.63
2022-11-14T15:09:30.844Z,25.87
2022-11-14T15:12:01.506Z,25.03
2022-11-14T15:14:32.674Z,26.07
2022-11-14T15:17:02.384Z,38.17
2022-11-14T15:19:36.784Z,66.13
2022-11-14T15:22:07.283Z,47.07
2022-11-14T15:24:35.281Z,42.00
2022-11-14T15:27:06.837Z,30.77
2022-11-14T15:29:35.064Z,30.17
2022-11-14T15:32:06.140Z,27.93
2022-11-14T15:34:36.143Z,28.67
2022-11-14T15:37:22.634Z,30.90
2022-11-14T15:39:51.139Z,31.80
2022-11-14T15:42:22.016Z,30.33
2022-11-14T15:44:50.349Z,35.50
2022-11-14T15:47:25.817Z,35.73
2022-11-14T15:50:00.616Z,33.57
2022-11-14T15:52:35.498Z,34.83
2022-11-14T15:55:05.221Z,32.63
2022-11-14T15:57:33.569Z,31.80
2022-11-14T16:00:01.663Z,32.03
2022-11-14T16:02:33.574Z,32.93
2022-11-14T16:05:02.547Z,34.93
2022-11-14T16:07:31.007Z,36.10
2022-11-14T16:09:59.276Z,42.07
2022-11-14T16:12:28.449Z,43.10
2022-11-14T16:14:56.593Z,39.63
2022-11-14T16:17:24.789Z,39.07
2022-11-14T16:19:55.374Z,41.43
2022-11-14T16:22:23.394Z,39.30
2022-11-14T16:24:51.416Z,38.67
2022-11-14T16:27:19.548Z,42.73
2022-11-14T16:29:47.554Z,41.13
2022-11-14T16:32:15.586Z,44.37
2022-11-14T16:34:43.830Z,38.40
2022-11-14T16:37:15.456Z,36.20
2022-11-14T16:39:43.649Z,44.00
2022-11-14T16:42:13.030Z,46.97
2022-11-14T16:44:45.078Z,49.90
2022-11-14T16:47:16.542Z,50.07
2022-11-14T16:49:44.664Z,52.97
2022-11-14T16:52:15.318Z,87.97
2022-11-14T16:54:44.175Z,66.20
2022-11-14T16:57:12.352Z,62.03
2022-11-14T16:59:40.376Z,54.27
2022-11-14T17:02:08.977Z,50.40
2022-11-14T17:04:37.158Z,49.77
2022-11-14T17:07:05.236Z,54.20
2022-11-14T17:09:34.738Z,56.17
2022-11-14T17:12:02.881Z,50.37
2022-11-14T17:14:30.993Z,48.67
2022-11-14T17:17:02.136Z,48.93
2022-11-14T17:19:30.843Z,46.20
2022-11-14T17:21:59.394Z,45.03
2022-11-14T17:24:31.393Z,46.57
2022-11-14T17:27:01.765Z,44.70
2022-11-14T17:29:29.990Z,44.77
2022-11-14T17:31:58.296Z,49.87
2022-11-14T17:34:26.598Z,51.70
2022-11-14T17:36:55.024Z,53.60
2022-11-14T17:39:23.793Z,53.60
2022-11-14T17:41:51.881Z,58.40
2022-11-14T17:44:21.626Z,60.30
2022-11-14T17:46:50.294Z,57.20
2022-11-14T17:49:18.435Z,58.90
2022-11-14T17:51:46.655Z,55.13
2022-11-14T17:54:14.974Z,58.57
2022-11-14T17:56:48.506Z,55.57
2022-11-14T17:59:21.457Z,51.30
2022-11-14T18:01:51.197Z,48.50
2022-11-14T18:04:19.341Z,47.40
2022-11-14T18:06:47.527Z,56.53
2022-11-14T18:09:15.695Z,56.33
2022-11-14T18:11:44.126Z,52.10
2022-11-14T18:14:14.446Z,54.80
2022-11-14T18:17:10.461Z,43.63
2022-11-14T18:19:32.321Z,43.40
2022-11-14T18:22:00.488Z,46.10
2022-11-14T18:24:29.203Z,40.40
2022-11-14T18:26:59.091Z,45.57
2022-11-14T18:29:28.587Z,45.83
2022-11-14T18:31:56.627Z,51.13
2022-11-14T18:34:24.707Z,53.17
2022-11-14T18:36:54.708Z,48.77
2022-11-14T18:39:22.814Z,46.97
2022-11-14T18:41:50.949Z,45.97
2022-11-14T18:44:21.546Z,42.40
2022-11-14T18:46:49.624Z,41.30
2022-11-14T18:49:18.278Z,39.47
2022-11-14T18:51:47.160Z,36.17
2022-11-14T18:54:19.033Z,35.57
2022-11-14T18:56:48.623Z,34.13
2022-11-14T18:59:18.072Z,34.17
2022-11-14T19:01:46.320Z,33.13
2022-11-14T19:04:17.356Z,32.90
2022-11-14T19:06:45.668Z,35.83
2022-11-14T19:09:22.812Z,36.93
2022-11-14T19:12:08.505Z,38.37
2022-11-14T19:14:37.987Z,42.23
2022-11-14T19:17:07.112Z,41.43
2022-11-14T19:19:35.238Z,41.77
2022-11-14T19:22:04.077Z,41.47
2022-11-14T19:24:34.321Z,41.63
2022-11-14T19:27:02.572Z,41.67
2022-11-14T19:29:30.669Z,42.13
2022-11-14T19:31:59.018Z,41.77
2022-11-14T19:34:27.269Z,40.57
2022-11-14T19:37:00.723Z,38.70
2022-11-14T19:39:29.582Z,37.00
2022-11-14T19:41:59.306Z,38.30
2022-11-14T19:44:27.387Z,36.67
2022-11-14T19:46:55.534Z,39.13
2022-11-14T19:49:23.628Z,45.80
2022-11-14T19:51:51.723Z,46.00
2022-11-14T19:54:19.897Z,43.57
2022-11-14T19:56:48.097Z,43.37
2022-11-14T19:59:22.948Z,42.97
2022-11-14T20:01:55.397Z,43.20
2022-11-14T20:04:23.794Z,44.57
2022-11-14T20:06:52.093Z,43.93
2022-11-14T20:09:20.331Z,43.33
2022-11-14T20:11:48.496Z,43.00
2022-11-14T20:14:18.271Z,44.03
2022-11-14T20:16:46.896Z,42.73
2022-11-14T20:19:16.413Z,41.47
2022-11-14T20:21:44.612Z,41.47
2022-11-14T20:24:15.516Z,41.50
2022-11-14T20:26:43.704Z,42.60
2022-11-14T20:29:11.900Z,42.83
2022-11-14T20:31:51.807Z,42.27
2022-11-14T20:34:39.342Z,44.23
2022-11-14T20:37:12.182Z,43.40
2022-11-14T20:39:48.219Z,44.27
2022-11-14T20:42:27.328Z,44.60
2022-11-14T20:45:01.778Z,44.47
2022-11-14T20:47:52.023Z,44.23
2022-11-14T20:50:39.329Z,45.93
2022-11-14T20:53:25.214Z,46.60
2022-11-14T20:56:11.599Z,45.73
2022-11-14T20:59:03.634Z,43.50
2022-11-14T21:01:57.667Z,43.37
2022-11-14T21:04:50.091Z,44.43
2022-11-14T21:07:35.180Z,44.50
2022-11-14T21:10:35.851Z,46.07
2022-11-14T21:13:34.435Z,44.63
2022-11-14T21:16:25.336Z,42.40
2022-11-14T21:19:08.372Z,44.70
2022-11-14T21:21:49.721Z,40.37
2022-11-14T21:24:38.376Z,40.03
2022-11-14T21:27:15.784Z,40.97
2022-11-14T21:29:54.742Z,41.10
2022-11-14T21:32:36.374Z,42.23
2022-11-14T21:35:24.359Z,41.27
2022-11-14T21:38:07.514Z,41.17
2022-11-14T21:40:48.308Z,39.47
2022-11-14T21:43:34.239Z,37.07
2022-11-14T21:46:06.977Z,38.10
2022-11-14T21:48:44.413Z,41.50
2022-11-14T21:51:19.134Z,37.93
2022-11-14T21:54:01.117Z,37.50
2022-11-14T21:56:41.639Z,37.97
2022-11-14T21:59:34.374Z,38.30
2022-11-14T22:02:32.118Z,35.07
2022-11-14T22:05:03.092Z,36.70
2022-11-14T22:07:44.117Z,38.50
2022-11-14T22:10:22.627Z,37.73
2022-11-14T22:13:07.087Z,39.00
2022-11-14T22:15:53.858Z,39.43
2022-11-14T22:18:37.622Z,40.07
2022-11-14T22:21:10.716Z,40.63
2022-11-14T22:23:39.178Z,40.90
2022-11-14T22:26:08.868Z,40.90
2022-11-14T22:28:37.008Z,41.30
2022-11-14T22:31:08.423Z,40.43
2022-11-14T22:33:41.510Z,43.13
2022-11-14T22:36:15.798Z,42.90
2022-11-14T22:38:44.938Z,42.17
2022-11-14T22:41:16.642Z,41.97
2022-11-14T22:43:45.107Z,43.03
2022-11-14T22:46:14.811Z,42.37
2022-11-14T22:48:44.521Z,41.57
2022-11-14T22:51:14.382Z,41.27
2022-11-14T22:53:42.950Z,41.63
2022-11-14T22:56:14.830Z,40.00
2022-11-14T22:58:45.043Z,40.23
2022-11-14T23:01:14.119Z,39.87
2022-11-14T23:03:42.273Z,39.73
2022-11-14T23:06:11.821Z,37.00
2022-11-14T23:08:40.033Z,37.80
2022-11-14T23:11:10.760Z,36.57
2022-11-14T23:13:41.403Z,35.90
2022-11-14T23:16:10.710Z,36.60
2022-11-14T23:18:39.318Z,36.63
2022-11-14T23:21:09.011Z,35.60
2022-11-14T23:23:37.114Z,33.80
2022-11-14T23:26:05.699Z,32.47
2022-11-14T23:28:34.032Z,33.57
2022-11-14T23:31:03.696Z,33.93
2022-11-14T23:33:32.317Z,33.80
2022-11-14T23:36:00.591Z,31.90
2022-11-14T23:38:30.608Z,32.70
2022-11-14T23:41:00.729Z,32.23
2022-11-14T23:43:30.419Z,31.47
2022-11-14T23:45:59.041Z,31.97
2022-11-14T23:48:28.514Z,33.23
2022-11-14T23:50:57.677Z,31.70
2022-11-14T23:53:25.805Z,32.53
2022-11-14T23:55:54.442Z,33.17
2022-11-14T23:58:23.490Z,30.63
